Time;durP1;ratioP1;P1;durP2;ratioP2;P2;SDS_P1;SDS_P2;PMS_P1;PMS_P2;Temp;Humidity;BMP_temperature;BMP_pressure;BME280_temperature;BME280_humidity;BME280_pressure;Samples;Min_cycle;Max_cycle;Signal;HPM_P1;HPM_P2
2022/06/25 06:24:12;;;;;;;;;0.00;0.00;;;;;21.64;100.00;99427.44;6197677;22;45241;-92
2022/06/25 06:26:37;;;;;;;;;0.33;0.33;;;;;21.64;100.00;99414.06;6181274;22;52056;-91
2022/06/25 06:29:03;;;;;;;;;0.00;0.00;;;;;21.73;100.00;99431.66;6182062;22;50598;-91
2022/06/25 06:31:28;;;;;;;;;3.00;1.00;;;;;21.84;100.00;99451.00;6208429;22;45334;-90
2022/06/25 06:33:54;;;;;;;;;2.00;1.00;;;;;21.92;100.00;99450.88;6208205;22;45228;-91
2022/06/25 06:36:19;;;;;;;;;2.00;2.00;;;;;22.04;100.00;99451.50;6207053;22;46342;-89
2022/06/25 06:38:45;;;;;;;;;1.00;1.00;;;;;22.15;100.00;99454.81;6180434;22;45481;-89
2022/06/25 06:41:12;;;;;;;;;2.00;1.00;;;;;22.23;100.00;99457.28;6181157;22;48310;-92
2022/06/25 06:43:38;;;;;;;;;2.00;2.00;;;;;22.27;100.00;99464.31;6182757;22;45381;-92
2022/06/25 06:46:03;;;;;;;;;1.00;1.00;;;;;22.29;100.00;99466.97;6183619;22;45437;-93
2022/06/25 06:48:28;;;;;;;;;0.33;0.33;;;;;22.25;100.00;99462.59;6211003;22;45313;-93
2022/06/25 06:50:54;;;;;;;;;0.67;0.00;;;;;22.24;100.00;99444.81;6210693;22;52432;-95
2022/06/25 06:53:21;;;;;;;;;1.00;1.00;;;;;22.23;100.00;99451.06;6209033;22;45326;-92
2022/06/25 06:55:46;;;;;;;;;2.00;1.00;;;;;22.25;100.00;99454.56;6210272;22;45677;-94
2022/06/25 06:58:12;;;;;;;;;0.33;0.33;;;;;22.23;100.00;99448.41;6210578;22;45319;-93
2022/06/25 07:00:37;;;;;;;;;2.00;1.67;;;;;22.25;100.00;99460.81;6182830;22;47952;-95
2022/06/25 07:03:02;;;;;;;;;0.67;0.67;;;;;22.25;100.00;99460.81;6189557;22;45606;-94
2022/06/25 07:05:28;;;;;;;;;2.67;2.00;;;;;22.24;100.00;99450.16;6208898;22;46301;-89
2022/06/25 07:07:53;;;;;;;;;0.33;0.33;;;;;22.26;100.00;99462.56;6180495;22;45821;-94
2022/06/25 07:10:20;;;;;;;;;0.00;0.00;;;;;22.25;100.00;99439.41;6207656;22;56672;-93
2022/06/25 07:12:46;;;;;;;;;0.00;0.00;;;;;22.26;100.00;99446.53;6181236;22;45375;-93
2022/06/25 07:15:11;;;;;;;;;0.00;0.00;;;;;22.26;100.00;99441.19;6208621;22;45316;-93
2022/06/25 07:17:37;;;;;;;;;0.00;0.00;;;;;22.31;100.00;99459.78;6210547;22;45466;-90
2022/06/25 07:20:04;;;;;;;;;0.67;0.67;;;;;22.35;100.00;99464.13;6183212;22;48328;-94
2022/06/25 07:22:29;;;;;;;;;3.00;1.00;;;;;22.42;100.00;99468.41;6198444;22;45311;-91
2022/06/25 07:24:54;;;;;;;;;1.00;1.00;;;;;22.51;100.00;99472.66;6180763;23;45218;-89
2022/06/25 07:27:19;;;;;;;;;2.00;2.00;;;;;22.59;100.00;99474.25;6153471;23;45388;-90
2022/06/25 07:29:45;;;;;;;;;5.33;4.00;;;;;22.64;100.00;99467.00;6153340;23;47044;-90
2022/06/25 07:32:10;;;;;;;;;1.33;1.33;;;;;22.75;100.00;99474.78;6179538;23;45327;-89
2022/06/25 07:34:36;;;;;;;;;4.00;2.00;;;;;22.83;100.00;99466.56;6179525;23;45414;-89
2022/06/25 07:37:02;;;;;;;;;4.00;3.00;;;;;22.90;100.00;99475.28;6152563;23;45370;-89
2022/06/25 07:39:28;;;;;;;;;1.00;1.00;;;;;22.86;100.00;99486.06;6146998;23;47383;-89
2022/06/25 07:41:53;;;;;;;;;0.67;0.33;;;;;22.93;100.00;99508.19;6176819;23;45453;-89
2022/06/25 07:44:19;;;;;;;;;0.00;0.00;;;;;22.96;100.00;99529.50;6179681;23;45190;-88
2022/06/25 07:46:44;;;;;;;;;0.00;0.00;;;;;22.97;100.00;99525.91;6178468;23;45235;-89
2022/06/25 07:49:10;;;;;;;;;1.67;1.67;;;;;23.02;100.00;99514.19;6179578;23;46218;-89
2022/06/25 07:54:19;;;;;;;;;8.00;5.67;;;;;23.01;100.00;99524.06;6179129;23;45409;-89
2022/06/25 07:56:45;;;;;;;;;3.00;3.00;;;;;22.98;100.00;99510.75;6144880;23;45519;-87
2022/06/25 07:59:10;;;;;;;;;2.00;2.00;;;;;23.02;100.00;99514.19;6175779;23;46148;-87
2022/06/25 08:01:35;;;;;;;;;4.00;1.00;;;;;23.01;100.00;99533.88;6176984;23;45410;-87
2022/06/25 08:04:01;;;;;;;;;3.33;2.67;;;;;23.03;100.00;99540.06;6178590;23;45282;-87
2022/06/25 08:06:26;;;;;;;;;1.00;1.00;;;;;23.09;100.00;99555.97;6150007;23;45602;-88
2022/06/25 08:08:52;;;;;;;;;1.00;1.00;;;;;23.15;100.00;99557.59;6178594;23;46410;-88
2022/06/25 08:11:18;;;;;;;;;0.33;0.33;;;;;23.12;100.00;99553.19;6177975;23;45366;-87
2022/06/25 08:13:43;;;;;;;;;0.00;0.00;;;;;23.18;100.00;99587.84;6178363;23;45390;-87
2022/06/25 08:16:09;;;;;;;;;0.00;0.00;;;;;23.21;100.00;99602.94;6176323;23;45663;-87
2022/06/25 08:18:35;;;;;;;;;2.00;1.00;;;;;23.17;100.00;99615.50;6178356;23;45298;-88
2022/06/25 08:21:00;;;;;;;;;3.67;1.00;;;;;23.15;100.00;99603.97;6176622;23;45318;-87
2022/06/25 08:23:26;;;;;;;;;2.00;1.00;;;;;23.08;100.00;99595.22;6202809;22;45465;-88
2022/06/25 08:25:51;;;;;;;;;1.00;1.00;;;;;23.13;100.00;99586.19;6208165;22;45647;-88
2022/06/25 08:28:18;;;;;;;;;1.00;1.00;;;;;23.08;100.00;99592.53;6208245;22;46391;-88
2022/06/25 08:30:43;;;;;;;;;1.00;0.00;;;;;23.08;100.00;99579.16;6208419;22;45449;-88
2022/06/25 08:33:09;;;;;;;;;1.67;1.67;;;;;23.02;100.00;99603.38;6180712;22;45440;-87
2022/06/25 08:35:35;;;;;;;;;1.00;1.00;;;;;22.92;100.00;99594.72;6207272;22;45393;-88
2022/06/25 08:38:02;;;;;;;;;1.00;1.00;;;;;22.87;100.00;99597.50;6207279;22;46428;-87
2022/06/25 08:40:27;;;;;;;;;1.00;1.00;;;;;22.74;100.00;99580.88;6177050;22;45541;-87
2022/06/25 08:42:53;;;;;;;;;0.00;0.00;;;;;22.65;100.00;99581.94;6208485;22;45444;-87
2022/06/25 08:45:18;;;;;;;;;3.00;1.33;;;;;22.60;100.00;99582.97;6208689;22;45501;-87
2022/06/25 08:47:49;;;;;;;;;1.00;1.00;;;;;22.60;100.00;99570.47;6179081;22;48400;-88
2022/06/25 08:50:16;;;;;;;;;0.67;0.67;;;;;22.49;100.00;99549.34;6205861;22;45370;-87
2022/06/25 08:52:47;;;;;;;;;2.67;1.33;;;;;22.51;100.00;99574.25;6209243;22;45287;-88
2022/06/25 08:55:23;;;;;;;;;1.00;1.00;;;;;22.45;100.00;99563.69;6207846;22;45255;-88
2022/06/25 08:57:49;;;;;;;;;3.00;3.00;;;;;22.48;100.00;99546.69;6208769;22;46451;-87
2022/06/25 09:00:14;;;;;;;;;5.67;5.67;;;;;22.50;100.00;99567.13;6209041;22;45395;-88
2022/06/25 09:02:40;;;;;;;;;3.00;2.00;;;;;22.43;100.00;99549.47;6181601;22;45500;-86
2022/06/25 09:05:08;;;;;;;;;0.33;0.33;;;;;22.42;100.00;99548.59;6208406;22;45448;-88
2022/06/25 09:07:34;;;;;;;;;2.00;2.00;;;;;22.33;100.00;99548.81;6181618;22;47152;-87
2022/06/25 09:09:59;;;;;;;;;1.00;1.00;;;;;22.24;100.00;99546.38;6208382;22;45746;-88
2022/06/25 09:12:24;;;;;;;;;2.00;2.00;;;;;22.23;100.00;99539.25;6209322;22;45687;-90
2022/06/25 09:14:50;;;;;;;;;1.00;1.00;;;;;22.12;100.00;99542.16;6181428;22;45409;-89
2022/06/25 09:17:16;;;;;;;;;1.00;1.00;;;;;22.00;100.00;99546.88;6208180;22;46184;-89
2022/06/25 09:19:51;;;;;;;;;1.00;1.00;;;;;22.05;100.00;99522.72;6207789;22;45429;-86
2022/06/25 09:22:22;;;;;;;;;2.67;1.00;;;;;22.19;100.00;99517.06;6209237;22;45543;-87
2022/06/25 09:24:55;;;;;;;;;1.33;1.33;;;;;22.48;100.00;99517.28;6207691;22;45497;-88
2022/06/25 09:27:38;;;;;;;;;3.67;1.67;;;;;22.73;100.00;99524.75;6208153;22;46297;-87
2022/06/25 09:30:12;;;;;;;;;2.00;1.67;;;;;22.99;100.00;99517.84;6181831;22;45373;-88
2022/06/25 09:32:45;;;;;;;;;1.00;1.00;;;;;23.26;100.00;99518.03;6208087;22;45291;-88
2022/06/25 09:35:12;;;;;;;;;3.67;2.00;;;;;23.51;100.00;99511.13;6207847;22;45696;-89
2022/06/25 09:37:39;;;;;;;;;3.67;2.00;;;;;23.74;100.00;99496.19;6207937;22;46076;-88
2022/06/25 09:40:05;;;;;;;;;3.00;1.33;;;;;23.86;100.00;99537.84;6208611;22;45675;-86
2022/06/25 09:42:33;;;;;;;;;2.00;1.00;;;;;23.93;100.00;99535.84;6208567;22;45288;-88
2022/06/25 09:45:11;;;;;;;;;3.00;3.00;;;;;23.95;100.00;99550.06;6208928;22;45414;-89
2022/06/25 09:47:40;;;;;;;;;0.33;0.33;;;;;23.97;100.00;99561.59;6208303;22;45340;-87
2022/06/25 09:50:10;;;;;;;;;2.33;2.33;;;;;24.00;100.00;99546.34;6208437;22;45287;-87
2022/06/25 09:52:37;;;;;;;;;1.00;1.00;;;;;24.09;100.00;99557.72;6182468;22;45386;-87
2022/06/25 09:55:04;;;;;;;;;2.33;2.33;;;;;24.14;100.00;99570.97;6181831;22;45458;-87
2022/06/25 09:57:31;;;;;;;;;2.33;1.33;;;;;24.15;100.00;99594.13;6209215;22;46962;-90
2022/06/25 09:59:59;;;;;;;;;2.00;2.00;;;;;24.13;100.00;99601.34;6209101;22;45303;-86
2022/06/25 10:02:30;;;;;;;;;0.67;0.67;;;;;24.07;100.00;99578.31;6208096;22;45363;-87
2022/06/25 10:05:01;;;;;;;;;1.33;1.33;;;;;24.07;100.00;99586.38;6208657;22;45366;-91
2022/06/25 10:10:15;;;;;;;;;1.00;1.00;;;;;23.98;100.00;99595.53;6209036;22;45288;-92
2022/06/25 10:12:41;;;;;;;;;0.33;0.33;;;;;23.94;100.00;99596.56;6182067;22;45335;-91
2022/06/25 10:15:07;;;;;;;;;2.00;2.00;;;;;23.85;100.00;99616.44;6180694;22;45547;-89
2022/06/25 10:17:32;;;;;;;;;1.00;1.00;;;;;23.79;100.00;99608.59;6208089;22;47671;-89
2022/06/25 10:19:58;;;;;;;;;2.00;1.00;;;;;23.69;100.00;99608.84;6180710;22;45363;-90
2022/06/25 10:22:24;;;;;;;;;4.67;3.00;;;;;23.64;100.00;99600.94;6182850;22;45697;-90
2022/06/25 10:24:50;;;;;;;;;3.00;2.00;;;;;23.62;100.00;99578.69;6181643;22;45686;-89
2022/06/25 10:27:15;;;;;;;;;3.67;3.67;;;;;23.61;100.00;99552.81;6208580;22;45328;-89
2022/06/25 10:29:51;;;;;;;;;5.00;5.00;;;;;23.75;100.00;99533.66;6208719;22;45517;-85
2022/06/25 10:32:18;;;;;;;;;15.00;11.00;;;;;23.99;100.00;99511.56;6208733;22;45326;-85
2022/06/25 10:34:58;;;;;;;;;13.67;12.33;;;;;24.30;100.00;99507.91;6208301;22;45253;-87
2022/06/25 10:37:24;;;;;;;;;12.67;9.67;;;;;24.67;100.00;99507.66;6208222;22;45431;-86
2022/06/25 10:39:56;;;;;;;;;3.33;2.00;;;;;24.91;100.00;99531.91;6180344;22;45979;-86
2022/06/25 10:45:10;;;;;;;;;1.00;1.00;;;;;25.10;100.00;99596.59;6208964;22;45354;-86
2022/06/25 10:47:40;;;;;;;;;1.00;1.00;;;;;25.04;100.00;99618.28;6208288;22;45295;-86
2022/06/25 10:50:21;;;;;;;;;1.00;1.00;;;;;24.97;99.39;99644.41;6180439;22;45379;-85
2022/06/25 10:53:01;;;;;;;;;3.33;0.33;;;;;24.93;99.39;99647.25;6209763;22;45393;-85
2022/06/25 10:55:27;;;;;;;;;2.33;2.00;;;;;24.79;97.75;99672.72;6209315;22;45593;-84
2022/06/25 10:58:10;;;;;;;;;0.33;0.33;;;;;24.70;97.65;99667.63;6208573;22;45773;-86
2022/06/25 11:00:55;;;;;;;;;3.00;2.00;;;;;24.65;98.87;99643.63;6181789;22;45326;-86
2022/06/25 11:03:32;;;;;;;;;0.33;0.33;;;;;24.69;100.00;99605.03;6209241;22;45449;-86
2022/06/25 11:06:16;;;;;;;;;2.00;1.00;;;;;24.76;100.00;99590.53;6210814;22;45330;-86
2022/06/25 11:08:42;;;;;;;;;2.00;2.00;;;;;24.86;99.75;99617.94;6209110;22;45360;-86
2022/06/25 11:11:08;;;;;;;;;2.00;1.33;;;;;24.95;100.00;99608.69;6209648;22;45692;-87
2022/06/25 11:13:33;;;;;;;;;0.33;0.33;;;;;25.04;99.23;99625.47;6208903;22;45413;-86
2022/06/25 11:15:59;;;;;;;;;1.00;1.00;;;;;25.09;100.00;99602.91;6209539;22;45242;-87
2022/06/25 11:18:24;;;;;;;;;2.67;2.00;;;;;25.11;100.00;99597.47;6208490;22;46215;-87
2022/06/25 11:20:51;;;;;;;;;3.33;1.67;;;;;25.09;100.00;99610.97;6208985;22;45407;-85
2022/06/25 11:23:16;;;;;;;;;0.00;0.00;;;;;25.07;100.00;99618.19;6209105;22;45215;-86
2022/06/25 11:28:48;;;;;;;;;0.33;0.33;;;;;24.79;100.00;99584.19;6209092;22;45435;-86
2022/06/25 11:31:17;;;;;;;;;3.00;3.00;;;;;24.70;100.00;99579.09;6209163;22;45275;-86
2022/06/25 11:33:44;;;;;;;;;1.00;1.00;;;;;24.63;100.00;99578.44;6208382;22;45707;-85
2022/06/25 11:36:13;;;;;;;;;1.00;1.00;;;;;24.61;100.00;99582.97;6209985;22;45312;-85
2022/06/25 11:38:40;;;;;;;;;1.33;1.00;;;;;24.57;100.00;99579.50;6204808;22;46970;-85
2022/06/25 11:41:06;;;;;;;;;4.00;3.67;;;;;24.51;100.00;99577.88;6210033;22;45334;-85
2022/06/25 11:43:31;;;;;;;;;3.33;3.33;;;;;24.40;100.00;99566.63;6210331;22;45606;-85
2022/06/25 11:45:58;;;;;;;;;6.67;4.00;;;;;24.28;100.00;99562.50;6210881;22;45232;-85
2022/06/25 11:48:34;;;;;;;;;8.00;6.00;;;;;24.21;100.00;99543.91;6210083;22;47166;-86
2022/06/25 11:51:01;;;;;;;;;2.00;2.00;;;;;24.14;100.00;99549.53;6182108;22;45556;-85
2022/06/25 11:53:27;;;;;;;;;3.00;2.00;;;;;24.07;100.00;99527.41;6210707;22;45333;-85
2022/06/25 11:56:02;;;;;;;;;2.00;2.00;;;;;23.99;100.00;99530.31;6209212;22;45312;-87
2022/06/25 11:58:30;;;;;;;;;5.33;4.33;;;;;23.86;100.00;99527.13;6207279;22;45448;-84
2022/06/25 12:00:57;;;;;;;;;4.67;3.33;;;;;23.61;100.00;99509.06;6208792;22;45417;-85
2022/06/25 12:03:24;;;;;;;;;3.00;3.00;;;;;23.34;100.00;99507.13;6208857;22;45374;-87
2022/06/25 12:05:50;;;;;;;;;4.00;4.00;;;;;23.10;100.00;99493.47;6209203;22;45325;-85
2022/06/25 12:08:16;;;;;;;;;3.00;3.00;;;;;22.91;100.00;99487.75;6208854;22;45370;-85
2022/06/25 12:10:42;;;;;;;;;3.00;3.00;;;;;22.75;100.00;99454.28;6208426;22;45330;-86
2022/06/25 12:13:08;;;;;;;;;3.67;3.67;;;;;22.69;100.00;99438.34;6209806;22;45297;-85
2022/06/25 12:15:35;;;;;;;;;4.33;2.67;;;;;22.69;100.00;99421.41;6209314;22;45317;-85
2022/06/25 12:18:05;;;;;;;;;1.33;1.00;;;;;22.64;100.00;99421.53;6208291;22;46001;-85
2022/06/25 12:20:31;;;;;;;;;2.00;2.00;;;;;22.56;100.00;99421.72;6208302;22;45299;-85
2022/06/25 12:22:57;;;;;;;;;4.00;2.33;;;;;22.52;100.00;99414.72;6208659;22;45310;-85
2022/06/25 12:25:27;;;;;;;;;3.00;1.00;;;;;22.39;100.00;99419.50;6208689;22;45267;-85
2022/06/25 12:27:53;;;;;;;;;2.00;2.00;;;;;22.44;100.00;99394.41;6208590;22;46231;-84
2022/06/25 12:30:27;;;;;;;;;3.67;3.00;;;;;22.42;100.00;99403.41;6208120;22;45344;-84
2022/06/25 12:32:57;;;;;;;;;1.33;1.33;;;;;22.35;100.00;99386.63;6208818;22;45337;-85
2022/06/25 12:35:28;;;;;;;;;1.33;1.33;;;;;22.33;100.00;99377.75;6177449;22;45792;-84
2022/06/25 12:38:03;;;;;;;;;2.00;2.00;;;;;22.34;100.00;99395.56;6208319;22;45705;-86
2022/06/25 12:40:37;;;;;;;;;3.67;2.00;;;;;22.25;100.00;99401.13;6180604;22;45276;-84
2022/06/25 12:43:05;;;;;;;;;0.00;0.00;;;;;22.18;100.00;99416.44;6210106;22;45272;-84
2022/06/25 12:45:31;;;;;;;;;1.00;1.00;;;;;22.05;100.00;99406.06;6208841;22;45510;-84
2022/06/25 12:47:56;;;;;;;;;3.00;2.33;;;;;22.02;100.00;99400.78;6208365;22;46238;-84
2022/06/25 12:50:33;;;;;;;;;2.67;2.00;;;;;22.05;100.00;99399.81;6207663;22;48556;-84
2022/06/25 12:53:10;;;;;;;;;2.00;2.00;;;;;21.95;100.00;99401.84;6209324;22;45387;-84
2022/06/25 12:55:36;;;;;;;;;2.00;2.00;;;;;21.86;100.00;99402.91;6208564;22;45288;-85
2022/06/25 12:58:06;;;;;;;;;5.00;2.00;;;;;21.86;100.00;99398.44;6208548;22;45373;-85
2022/06/25 13:00:34;;;;;;;;;1.00;1.00;;;;;21.76;100.00;99388.88;6209265;22;45304;-84
2022/06/25 13:03:00;;;;;;;;;1.33;1.00;;;;;21.79;100.00;99396.81;6209230;22;45416;-84
2022/06/25 13:05:25;;;;;;;;;1.00;1.00;;;;;21.70;100.00;99399.72;6207997;22;45422;-85
2022/06/25 13:07:51;;;;;;;;;1.00;1.00;;;;;21.63;100.00;99396.28;6209246;22;46112;-84
2022/06/25 13:10:16;;;;;;;;;1.00;1.00;;;;;21.60;100.00;99397.22;6208063;22;45410;-84
2022/06/25 13:12:43;;;;;;;;;2.33;1.00;;;;;21.58;100.00;99391.06;6182051;22;45485;-85
2022/06/25 13:15:10;;;;;;;;;2.00;2.00;;;;;21.57;100.00;99383.94;6181569;22;45450;-84
2022/06/25 13:17:35;;;;;;;;;3.67;2.00;;;;;21.57;100.00;99381.28;6208408;22;45519;-85
2022/06/25 13:20:01;;;;;;;;;1.00;1.00;;;;;21.58;100.00;99361.69;6207742;22;45484;-84
2022/06/25 13:22:27;;;;;;;;;1.00;1.00;;;;;21.68;100.00;99369.47;6209341;22;45309;-84
2022/06/25 13:24:53;;;;;;;;;4.00;2.00;;;;;21.79;100.00;99345.19;6207924;22;45327;-85
2022/06/25 13:27:18;;;;;;;;;1.00;1.00;;;;;21.83;100.00;99347.75;6209192;22;46328;-85
2022/06/25 13:29:45;;;;;;;;;2.00;1.67;;;;;21.86;100.00;99362.84;6181222;22;45326;-85
2022/06/25 13:32:16;;;;;;;;;1.00;1.00;;;;;21.84;100.00;99381.56;6209342;22;45547;-85
2022/06/25 13:34:41;;;;;;;;;1.00;1.00;;;;;21.73;100.00;99383.59;6208806;22;45235;-85
2022/06/25 13:37:07;;;;;;;;;1.00;1.00;;;;;21.68;100.00;99382.81;6208437;22;45690;-86
2022/06/25 13:39:32;;;;;;;;;0.67;0.67;;;;;21.57;100.00;99380.44;6207753;22;45374;-86
2022/06/25 13:41:58;;;;;;;;;1.00;1.00;;;;;21.46;100.00;99388.66;6209191;22;45231;-86
2022/06/25 13:44:23;;;;;;;;;1.00;1.00;;;;;21.42;100.00;99398.50;6209173;22;45245;-86
2022/06/25 13:46:48;;;;;;;;;2.00;1.00;;;;;21.42;100.00;99401.19;6208024;22;45478;-86
2022/06/25 13:49:14;;;;;;;;;2.00;2.00;;;;;21.34;100.00;99395.16;6208477;22;45241;-87
2022/06/25 13:51:39;;;;;;;;;1.00;1.00;;;;;21.28;100.00;99394.38;6208610;22;45406;-85
2022/06/25 13:54:05;;;;;;;;;2.00;0.00;;;;;21.27;100.00;99405.94;6180790;22;45297;-89
2022/06/25 13:56:32;;;;;;;;;1.00;1.00;;;;;21.23;100.00;99395.38;6181446;22;45954;-88
2022/06/25 13:58:57;;;;;;;;;1.00;1.00;;;;;21.21;100.00;99398.94;6209372;22;45911;-88
2022/06/25 14:01:22;;;;;;;;;1.00;1.00;;;;;21.19;100.00;99387.41;6209923;22;45270;-88
2022/06/25 14:03:48;;;;;;;;;1.00;1.00;;;;;21.19;100.00;99383.88;6208592;22;45393;-89
2022/06/25 14:06:13;;;;;;;;;2.67;1.00;;;;;21.19;100.00;99389.22;6207400;22;45512;-88
2022/06/25 14:08:39;;;;;;;;;3.33;3.00;;;;;21.16;100.00;99376.81;6206972;22;45402;-87
2022/06/25 14:11:05;;;;;;;;;1.00;1.00;;;;;21.18;100.00;99377.66;6180550;22;45363;-86
2022/06/25 14:13:31;;;;;;;;;1.00;1.00;;;;;21.18;100.00;99382.97;6180737;22;45510;-86
2022/06/25 14:15:56;;;;;;;;;1.00;1.00;;;;;21.09;100.00;99373.41;6207665;22;45324;-86
2022/06/25 14:18:22;;;;;;;;;2.67;1.00;;;;;21.14;100.00;99393.75;6179287;22;45403;-86
2022/06/25 14:20:47;;;;;;;;;2.00;2.00;;;;;21.11;100.00;99378.69;6179680;22;45394;-87
2022/06/25 14:23:12;;;;;;;;;2.00;2.00;;;;;21.20;100.00;99393.66;6206655;22;49920;-85
2022/06/25 14:25:38;;;;;;;;;1.67;1.67;;;;;21.25;100.00;99391.75;6207221;22;45405;-86
2022/06/25 14:28:04;;;;;;;;;2.67;2.00;;;;;21.24;100.00;99392.66;6180149;22;45439;-86
2022/06/25 14:30:32;;;;;;;;;2.00;2.00;;;;;21.36;100.00;99401.34;6207884;22;45275;-84
2022/06/25 14:32:57;;;;;;;;;1.00;1.00;;;;;21.33;100.00;99380.94;6208014;22;45458;-87
2022/06/25 14:35:23;;;;;;;;;1.00;1.00;;;;;21.44;100.00;99388.72;6207204;22;46549;-87
2022/06/25 14:43:07;;;;;;;;;1.00;1.00;;;;;21.53;100.00;99406.28;6208563;22;45296;-87
2022/06/25 14:45:32;;;;;;;;;2.00;1.00;;;;;21.54;100.00;99410.72;6208235;22;46230;-87
2022/06/25 14:47:58;;;;;;;;;1.00;1.00;;;;;21.58;100.00;99411.53;6208696;22;45556;-86
2022/06/25 14:50:23;;;;;;;;;2.00;2.00;;;;;21.53;100.00;99400.97;6206589;22;45352;-88
2022/06/25 14:52:48;;;;;;;;;1.00;1.00;;;;;21.59;100.00;99405.28;6180347;22;45437;-87
2022/06/25 14:55:14;;;;;;;;;1.67;1.00;;;;;21.60;100.00;99421.25;6207776;22;46578;-86
2022/06/25 14:57:40;;;;;;;;;2.33;2.00;;;;;21.55;100.00;99413.34;6180022;22;45453;-86
2022/06/25 15:00:08;;;;;;;;;0.00;0.00;;;;;21.50;100.00;99415.25;6179967;22;45669;-86
2022/06/25 15:02:34;;;;;;;;;2.00;2.00;;;;;21.47;100.00;99422.44;6207362;22;45328;-86
2022/06/25 15:05:00;;;;;;;;;1.00;1.00;;;;;21.38;100.00;99411.06;6207133;22;46577;-86
2022/06/25 15:07:27;;;;;;;;;1.00;1.00;;;;;21.34;100.00;99408.50;6207281;22;45396;-85
2022/06/25 15:09:53;;;;;;;;;0.00;0.00;;;;;21.28;100.00;99409.50;6180119;22;45682;-86
2022/06/25 15:12:18;;;;;;;;;1.00;1.00;;;;;21.25;100.00;99397.09;6181239;22;45407;-86
2022/06/25 15:14:43;;;;;;;;;2.00;2.00;;;;;21.26;100.00;99392.66;6178669;22;47200;-85
2022/06/25 15:17:08;;;;;;;;;1.00;1.00;;;;;21.30;100.00;99413.88;6179140;22;51870;-85
2022/06/25 15:19:34;;;;;;;;;2.00;2.00;;;;;21.31;100.00;99406.78;6207375;22;45363;-85
2022/06/25 15:22:00;;;;;;;;;1.00;1.00;;;;;21.27;100.00;99427.28;6179375;22;46028;-85
2022/06/25 15:24:25;;;;;;;;;0.00;0.00;;;;;21.34;100.00;99440.53;6180480;22;47150;-85
2022/06/25 15:26:51;;;;;;;;;0.00;0.00;;;;;21.36;100.00;99450.25;6208135;22;45330;-85
2022/06/25 15:29:16;;;;;;;;;0.00;0.00;;;;;21.43;100.00;99461.66;6181205;22;45558;-85
2022/06/25 15:31:41;;;;;;;;;0.67;0.67;;;;;21.46;100.00;99448.28;6208416;22;45788;-85
2022/06/25 15:34:07;;;;;;;;;1.33;1.00;;;;;21.63;100.00;99453.25;6209559;22;45968;-85
2022/06/25 15:36:32;;;;;;;;;1.67;1.33;;;;;21.79;100.00;99452.03;6208859;22;45342;-85
2022/06/25 15:38:58;;;;;;;;;0.00;0.00;;;;;21.86;100.00;99475.00;6209126;22;45377;-85
2022/06/25 15:41:24;;;;;;;;;0.00;0.00;;;;;21.87;100.00;99456.31;6208279;22;45397;-86
2022/06/25 15:43:50;;;;;;;;;1.00;1.00;;;;;21.91;100.00;99456.22;6208577;22;45228;-86
2022/06/25 15:46:16;;;;;;;;;1.33;0.67;;;;;21.90;100.00;99462.50;6208568;22;45309;-86
2022/06/25 15:48:41;;;;;;;;;1.00;1.00;;;;;21.84;100.00;99475.06;6208569;22;45362;-86
2022/06/25 15:51:06;;;;;;;;;1.33;1.33;;;;;21.80;100.00;99469.81;6208705;22;45666;-84
2022/06/25 15:53:32;;;;;;;;;1.00;1.00;;;;;21.80;100.00;99465.31;6208920;22;46552;-84
2022/06/25 15:55:58;;;;;;;;;0.00;0.00;;;;;21.77;100.00;99460.97;6208874;22;45307;-84
2022/06/25 15:58:23;;;;;;;;;2.00;1.00;;;;;21.81;100.00;99469.78;6205907;22;45647;-84
2022/06/25 16:00:48;;;;;;;;;1.67;1.67;;;;;21.71;100.00;99454.84;6208186;22;45302;-84
2022/06/25 16:03:14;;;;;;;;;0.33;0.00;;;;;21.68;100.00;99476.28;6207993;22;46221;-84
2022/06/25 16:05:39;;;;;;;;;0.00;0.00;;;;;21.55;100.00;99471.19;6209066;22;45389;-84
2022/06/25 16:08:05;;;;;;;;;1.00;1.00;;;;;21.50;100.00;99470.41;6209622;22;45329;-84
2022/06/25 16:10:30;;;;;;;;;1.00;0.00;;;;;21.43;100.00;99483.91;6208418;22;45405;-84
2022/06/25 16:12:56;;;;;;;;;1.00;0.00;;;;;21.47;100.00;99502.50;6209597;22;46529;-84
2022/06/25 16:15:21;;;;;;;;;0.00;0.00;;;;;21.42;100.00;99492.81;6181829;22;45341;-85
2022/06/25 16:17:46;;;;;;;;;1.67;1.67;;;;;21.51;100.00;99499.78;6208774;22;45901;-84
2022/06/25 16:20:12;;;;;;;;;0.00;0.00;;;;;21.50;100.00;99467.75;6208366;22;45456;-84
2022/06/25 16:22:38;;;;;;;;;0.33;0.33;;;;;21.50;100.00;99481.09;6208632;22;46163;-84
2022/06/25 16:25:06;;;;;;;;;0.00;0.00;;;;;21.40;100.00;99475.97;6209483;22;45291;-84
2022/06/25 16:27:31;;;;;;;;;0.33;0.33;;;;;21.48;100.00;99498.94;6209537;22;45592;-84
2022/06/25 16:29:56;;;;;;;;;0.00;0.00;;;;;21.44;100.00;99487.47;6209283;22;45333;-84
2022/06/25 16:32:22;;;;;;;;;1.00;1.00;;;;;21.46;100.00;99498.97;6180717;22;46238;-84
2022/06/25 16:34:47;;;;;;;;;0.00;0.00;;;;;21.42;100.00;99498.16;6208318;22;45365;-84
2022/06/25 16:37:12;;;;;;;;;1.00;0.00;;;;;21.41;100.00;99501.75;6210020;22;45613;-84
2022/06/25 16:39:38;;;;;;;;;0.00;0.00;;;;;21.34;100.00;99493.91;6208898;22;45420;-84
2022/06/25 16:42:03;;;;;;;;;0.00;0.00;;;;;21.32;100.00;99481.44;6208315;22;50327;-83
2022/06/25 16:44:29;;;;;;;;;0.00;0.00;;;;;21.28;100.00;99477.09;6209491;22;45701;-85
2022/06/25 16:46:54;;;;;;;;;0.00;0.00;;;;;21.34;100.00;99477.88;6207743;22;45492;-85
2022/06/25 16:49:21;;;;;;;;;1.00;1.00;;;;;21.51;100.00;99489.09;6208781;22;45333;-84
2022/06/25 16:51:48;;;;;;;;;0.00;0.00;;;;;21.55;100.00;99471.19;6208535;22;45407;-86
2022/06/25 16:54:18;;;;;;;;;0.00;0.00;;;;;;;;6208189;22;45334;-85
2022/06/25 16:56:45;;;;;;;;;2.00;0.67;;;;;21.77;100.00;99446.72;6201550;22;45449;-88
2022/06/25 16:59:13;;;;;;;;;1.00;0.33;;;;;21.86;100.00;99469.66;6207984;22;45449;-86
2022/06/25 17:01:38;;;;;;;;;1.00;0.00;;;;;21.85;100.00;99475.94;6206917;22;46474;-86
2022/06/25 17:04:05;;;;;;;;;1.00;1.00;;;;;21.81;100.00;99487.56;6206849;22;45415;-86
2022/06/25 17:06:31;;;;;;;;;0.00;0.00;;;;;21.73;100.00;99483.28;6208587;22;45355;-86
2022/06/25 17:08:56;;;;;;;;;2.00;0.67;;;;;21.67;100.00;99523.50;6207137;22;45562;-87
2022/06/25 17:11:23;;;;;;;;;0.67;0.67;;;;;21.57;100.00;99520.09;6207173;22;46233;-88
2022/06/25 17:13:49;;;;;;;;;1.00;0.00;;;;;21.49;100.00;99508.72;6181595;22;45443;-86
2022/06/25 17:16:16;;;;;;;;;0.00;0.00;;;;;21.38;100.00;99519.59;6207232;22;45381;-87
2022/06/25 17:18:42;;;;;;;;;0.67;0.67;;;;;21.27;100.00;99526.03;6205570;22;45331;-86
2022/06/25 17:21:08;;;;;;;;;0.00;0.00;;;;;21.26;100.00;99518.06;6206755;22;46166;-86
2022/06/25 17:23:33;;;;;;;;;0.00;0.00;;;;;21.18;100.00;99502.19;6206993;22;45322;-86
2022/06/25 17:25:59;;;;;;;;;0.00;0.00;;;;;21.20;100.00;99509.25;6208230;22;45426;-86
2022/06/25 17:28:24;;;;;;;;;0.67;0.67;;;;;21.20;100.00;99490.56;6209468;22;45248;-88
2022/06/25 17:30:50;;;;;;;;;2.33;1.00;;;;;21.19;100.00;99469.25;6206944;22;45430;-85
2022/06/25 17:33:15;;;;;;;;;4.33;4.00;;;;;21.29;100.00;99475.28;6207387;22;45330;-88
2022/06/25 17:35:40;;;;;;;;;0.00;0.00;;;;;21.37;100.00;99480.47;6207862;22;45768;-87
2022/06/25 17:38:06;;;;;;;;;2.00;1.00;;;;;21.40;100.00;99496.41;6212342;22;45365;-87
2022/06/25 17:40:33;;;;;;;;;0.67;0.67;;;;;21.36;100.00;99500.97;6180564;22;46179;-84
2022/06/25 17:43:00;;;;;;;;;0.67;0.67;;;;;21.39;100.00;99490.19;6208828;22;45374;-83
2022/06/25 17:45:26;;;;;;;;;0.67;0.67;;;;;21.41;100.00;99490.19;6208089;22;45449;-84
2022/06/25 17:47:51;;;;;;;;;1.00;1.00;;;;;21.39;100.00;99468.00;6208479;22;45632;-84
2022/06/25 17:50:17;;;;;;;;;1.00;1.00;;;;;21.36;100.00;99482.28;6207320;22;45404;-84
2022/06/25 17:52:43;;;;;;;;;0.33;0.33;;;;;21.37;100.00;99477.78;6208211;22;45414;-84
2022/06/25 17:55:10;;;;;;;;;2.00;1.00;;;;;21.40;100.00;99469.72;6209090;22;45265;-84
2022/06/25 17:57:36;;;;;;;;;1.00;1.00;;;;;21.40;100.00;99475.06;6208087;22;45518;-84
2022/06/25 18:00:06;;;;;;;;;0.00;0.00;;;;;21.38;100.00;99453.75;6207621;22;46201;-84
2022/06/25 18:02:32;;;;;;;;;1.67;1.00;;;;;21.35;100.00;99461.81;6180408;22;45352;-84
2022/06/25 18:04:58;;;;;;;;;0.00;0.00;;;;;21.31;100.00;99466.34;6207344;22;45237;-85